Time;durP1;ratioP1;P1;durP2;ratioP2;P2;SDS_P1;SDS_P2;PMS_P1;PMS_P2;Temp;Humidity;BMP_temperature;BMP_pressure;BME280_temperature;BME280_humidity;BME280_pressure;Samples;Min_cycle;Max_cycle;Signal;HPM_P1;HPM_P2
2021/08/07 00:01:26;;;;;;;7.28;4.10;;;;;;;24.39;45.60;94747.03;5013325;28;20095;-78
2021/08/07 00:03:53;;;;;;;6.07;5.28;;;;;;;24.33;45.52;94743.94;5014963;28;20168;-78
2021/08/07 00:06:18;;;;;;;6.18;4.47;;;;;;;24.31;45.60;94732.72;5012708;28;20037;-78
2021/08/07 00:08:44;;;;;;;4.85;4.45;;;;;;;24.28;45.58;94730.00;5036800;28;20033;-78
2021/08/07 00:11:09;;;;;;;6.18;4.45;;;;;;;24.35;45.37;94730.72;5013395;28;20061;-77
2021/08/07 00:13:35;;;;;;;6.00;4.07;;;;;;;24.25;45.29;94723.41;5013930;28;20169;-79
2021/08/07 00:16:00;;;;;;;4.70;4.05;;;;;;;24.22;45.19;94724.22;5013421;28;20031;-79
2021/08/07 00:18:33;;;;;;;6.50;4.25;;;;;;;24.17;45.46;94713.03;5015371;28;20111;-80
2021/08/07 00:20:59;;;;;;;5.25;4.28;;;;;;;24.14;45.53;94717.31;5013796;28;20026;-79
2021/08/07 00:23:24;;;;;;;5.10;4.57;;;;;;;24.18;45.35;94709.91;5004986;28;20061;-78
2021/08/07 00:25:50;;;;;;;5.85;4.65;;;;;;;24.16;45.31;94704.09;5028344;28;20057;-78
2021/08/07 00:28:15;;;;;;;7.68;4.50;;;;;;;24.20;45.62;94723.84;5013234;28;20032;-77
2021/08/07 00:30:41;;;;;;;5.63;5.13;;;;;;;24.15;45.43;94721.56;5015267;28;20057;-78
2021/08/07 00:33:06;;;;;;;4.97;4.47;;;;;;;24.07;45.45;94714.66;5013068;28;20088;-79
2021/08/07 00:35:31;;;;;;;5.40;4.90;;;;;;;24.11;45.66;94729.75;5013077;28;20038;-77
2021/08/07 00:37:57;;;;;;;8.68;5.07;;;;;;;24.00;45.87;94715.47;5019956;28;20041;-78
2021/08/07 00:40:22;;;;;;;4.63;4.20;;;;;;;24.05;45.63;94714.28;5026868;28;20038;-78
2021/08/07 00:42:48;;;;;;;6.20;4.00;;;;;;;24.08;45.73;94716.19;5014870;28;20030;-80
2021/08/07 00:45:13;;;;;;;8.20;5.50;;;;;;;24.21;45.83;94730.06;5023771;23;20045;-73
2021/08/07 00:47:39;;;;;;;5.47;4.97;;;;;;;24.29;45.47;94732.31;5001742;28;20046;-71
2021/08/07 00:50:05;;;;;;;4.85;4.43;;;;;;;24.35;45.25;94719.84;5011216;28;20065;-73
2021/08/07 00:52:31;;;;;;;6.00;4.50;;;;;;;24.46;45.42;94730.63;5003427;28;20038;-74
2021/08/07 00:54:59;;;;;;;8.18;4.70;;;;;;;24.45;45.04;94712.00;5012568;28;20466;-74
2021/08/07 00:57:24;;;;;;;6.20;5.13;;;;;;;24.40;45.10;94707.00;5009589;28;20038;-74
2021/08/07 00:59:50;;;;;;;10.07;5.35;;;;;;;24.51;45.31;94724.75;5009734;28;20099;-74
2021/08/07 01:02:19;;;;;;;9.25;4.47;;;;;;;24.48;45.18;94722.09;5009581;28;20048;-73
2021/08/07 01:04:50;;;;;;;5.32;4.70;;;;;;;24.48;45.22;94724.81;5009637;28;20427;-70
2021/08/07 01:07:28;;;;;;;6.50;5.90;;;;;;;24.48;44.95;94714.69;5009465;28;20416;-73
2021/08/07 01:10:26;;;;;;;6.47;4.78;;;;;;;24.50;45.11;94712.34;5012660;28;20113;-71
2021/08/07 01:13:08;;;;;;;5.40;4.90;;;;;;;24.57;45.12;94708.81;4982893;28;20042;-74
2021/08/07 01:15:37;;;;;;;7.10;4.95;;;;;;;24.60;44.96;94713.41;5026260;28;20049;-74
2021/08/07 01:18:05;;;;;;;7.00;5.05;;;;;;;24.59;44.80;94707.22;5010691;28;20046;-74
2021/08/07 01:20:35;;;;;;;6.07;4.22;;;;;;;24.62;44.75;94694.75;5026071;28;20064;-73
2021/08/07 01:23:22;;;;;;;4.70;4.30;;;;;;;24.83;44.73;94699.97;5010297;28;20034;-74
2021/08/07 01:26:00;;;;;;;5.82;5.22;;;;;;;24.87;44.78;94689.78;5010517;28;20045;-74
2021/08/07 01:28:34;;;;;;;5.88;5.30;;;;;;;24.88;44.59;94685.91;5010682;28;20134;-74
2021/08/07 01:31:02;;;;;;;8.25;4.88;;;;;;;24.78;44.53;94664.28;5010680;28;20557;-74
2021/08/07 01:33:29;;;;;;;6.07;4.20;;;;;;;24.93;44.33;94692.06;5012448;28;20049;-74
2021/08/07 01:35:55;;;;;;;7.07;5.20;;;;;;;24.79;44.42;94660.38;5010089;28;20042;-73
2021/08/07 01:38:20;;;;;;;4.22;3.92;;;;;;;24.95;44.57;94674.16;5009566;28;20061;-74
2021/08/07 01:40:46;;;;;;;5.70;4.60;;;;;;;24.89;44.44;94648.59;5010070;28;20533;-73
2021/08/07 01:43:12;;;;;;;4.43;4.03;;;;;;;24.98;44.24;94658.97;5010460;28;20030;-74
2021/08/07 01:45:39;;;;;;;5.10;4.10;;;;;;;24.95;44.42;94651.63;5011852;28;20049;-73
2021/08/07 01:48:08;;;;;;;5.90;4.95;;;;;;;24.80;44.34;94635.47;5010331;28;20125;-73
2021/08/07 01:50:38;;;;;;;4.97;4.50;;;;;;;24.88;44.27;94652.50;5010225;28;20479;-73
2021/08/07 01:53:17;;;;;;;6.47;4.15;;;;;;;24.74;44.57;94641.78;5009624;28;20042;-73
2021/08/07 01:56:03;;;;;;;10.20;4.90;;;;;;;24.65;44.45;94634.09;5009560;28;20030;-74
2021/08/07 01:58:41;;;;;;;5.22;4.38;;;;;;;24.46;44.37;94651.03;5010070;28;20061;-71
2021/08/07 02:01:07;;;;;;;6.93;4.65;;;;;;;24.38;44.88;94650.34;5007849;28;20101;-69
2021/08/07 02:03:33;;;;;;;5.47;4.50;;;;;;;24.34;44.94;94657.72;5009167;28;20122;-69
2021/08/07 02:06:00;;;;;;;6.32;4.28;;;;;;;24.29;45.38;94669.81;5009019;28;20089;-69
2021/08/07 02:08:26;;;;;;;6.63;4.93;;;;;;;24.24;45.12;94661.31;5024082;28;20172;-70
2021/08/07 02:10:51;;;;;;;5.38;4.60;;;;;;;24.20;45.41;94660.56;5008525;28;20034;-69
2021/08/07 02:13:18;;;;;;;6.28;5.68;;;;;;;24.15;45.17;94669.16;5008741;28;20029;-69
2021/08/07 02:15:46;;;;;;;5.70;4.25;;;;;;;23.73;45.35;94611.31;5011093;28;20022;-69
2021/08/07 02:18:13;;;;;;;7.65;5.82;;;;;;;23.93;45.41;94646.84;5008840;28;20034;-69
2021/08/07 02:20:39;;;;;;;4.30;3.90;;;;;;;23.97;45.58;94661.94;5009406;28;20138;-68
2021/08/07 02:23:05;;;;;;;8.50;5.50;;;;;;;23.92;45.58;94650.75;5008720;28;20100;-68
2021/08/07 02:25:30;;;;;;;6.13;5.50;;;;;;;23.76;45.95;94638.47;5008908;28;20029;-68
2021/08/07 02:27:56;;;;;;;6.07;5.57;;;;;;;23.50;45.88;94598.31;5011258;28;20030;-69
2021/08/07 02:30:22;;;;;;;8.32;5.25;;;;;;;23.77;45.90;94617.50;5009245;28;20091;-69
2021/08/07 02:32:48;;;;;;;7.43;5.88;;;;;;;23.97;46.27;94634.78;5024342;28;20431;-69
2021/08/07 02:35:14;;;;;;;4.47;4.07;;;;;;;24.08;45.76;94645.56;5009097;28;20030;-68
2021/08/07 02:37:40;;;;;;;6.95;4.93;;;;;;;24.12;45.91;94624.56;5006547;28;20077;-68
2021/08/07 02:40:09;;;;;;;5.38;4.53;;;;;;;24.29;45.50;94630.97;5009179;28;20069;-68
2021/08/07 02:42:35;;;;;;;5.28;4.78;;;;;;;24.36;45.61;94631.72;5011016;28;20022;-69
2021/08/07 02:45:03;;;;;;;5.10;4.63;;;;;;;24.30;45.38;94622.41;5008950;28;20395;-69
2021/08/07 02:47:29;;;;;;;5.53;5.05;;;;;;;24.39;45.48;94627.41;5023534;28;20057;-69
2021/08/07 02:49:54;;;;;;;5.03;4.38;;;;;;;24.45;45.14;94631.22;5023913;28;20431;-69
2021/08/07 02:52:20;;;;;;;6.20;5.30;;;;;;;24.52;45.15;94623.00;5007339;28;20042;-68
2021/08/07 02:54:47;;;;;;;5.20;4.15;;;;;;;24.55;45.41;94613.25;5010599;28;20491;-69
2021/08/07 02:57:12;;;;;;;6.78;4.10;;;;;;;24.61;44.78;94611.63;5008328;28;20052;-68
2021/08/07 02:59:38;;;;;;;4.68;4.13;;;;;;;24.56;44.91;94626.44;5008822;28;20041;-68
2021/08/07 03:02:04;;;;;;;5.90;4.15;;;;;;;24.12;45.96;94630.00;5007666;28;20104;-69
2021/08/07 03:04:29;;;;;;;7.90;3.83;;;;;;;23.58;47.16;94648.66;5008792;28;20121;-69
2021/08/07 03:06:55;;;;;;;6.78;4.22;;;;;;;24.04;46.23;94612.97;5008315;28;20033;-69
2021/08/07 03:09:20;;;;;;;4.57;4.15;;;;;;;24.36;45.69;94623.56;5008490;28;20487;-70
2021/08/07 03:11:46;;;;;;;5.03;4.32;;;;;;;24.48;45.44;94619.56;5023799;28;20030;-69
2021/08/07 03:14:11;;;;;;;4.38;4.00;;;;;;;24.50;45.12;94624.56;5008714;28;20046;-68
2021/08/07 03:16:37;;;;;;;7.57;5.20;;;;;;;24.37;45.09;94603.38;5007957;28;20045;-68
2021/08/07 03:19:02;;;;;;;5.18;4.22;;;;;;;24.31;45.26;94615.84;5008650;28;20109;-69
2021/08/07 03:21:29;;;;;;;9.43;5.40;;;;;;;24.27;45.54;94623.25;5009360;28;20022;-69
2021/08/07 03:23:54;;;;;;;6.90;5.80;;;;;;;24.19;45.48;94610.91;5006642;28;20046;-69
2021/08/07 03:26:20;;;;;;;7.75;5.90;;;;;;;24.28;45.56;94616.63;5007960;28;20038;-68
2021/08/07 03:28:45;;;;;;;8.63;6.35;;;;;;;24.18;45.56;94606.63;5008577;28;20085;-68
2021/08/07 03:31:10;;;;;;;5.40;4.85;;;;;;;24.20;45.68;94598.84;5011445;28;20025;-68
2021/08/07 03:33:36;;;;;;;6.43;4.75;;;;;;;24.31;45.18;94615.03;5014493;28;20018;-68
2021/08/07 03:36:02;;;;;;;8.40;5.78;;;;;;;24.19;45.26;94605.47;5011992;28;20042;-68
2021/08/07 03:38:28;;;;;;;5.65;5.20;;;;;;;24.40;45.20;94623.50;5011722;28;20369;-69
2021/08/07 03:40:53;;;;;;;7.78;6.95;;;;;;;24.33;45.16;94629.78;5012265;28;20040;-69
2021/08/07 03:43:19;;;;;;;5.70;4.78;;;;;;;24.38;45.61;94634.03;5027393;28;20388;-70
2021/08/07 03:45:44;;;;;;;8.13;5.63;;;;;;;24.43;45.48;94628.16;5012378;28;20383;-69
2021/08/07 03:48:10;;;;;;;8.10;6.32;;;;;;;24.49;45.30;94623.81;5012204;28;20093;-68
2021/08/07 03:50:36;;;;;;;7.93;5.07;;;;;;;24.56;45.16;94634.59;5012194;28;20042;-68
2021/08/07 03:53:01;;;;;;;6.22;4.57;;;;;;;24.59;45.12;94603.09;5010272;28;20056;-69
2021/08/07 03:55:26;;;;;;;5.88;5.28;;;;;;;24.83;44.95;94612.16;5011742;28;20491;-69
2021/08/07 03:58:01;;;;;;;5.43;4.50;;;;;;;24.83;44.62;94590.38;5013228;28;20439;-69
2021/08/07 04:00:29;;;;;;;5.10;4.65;;;;;;;25.00;44.36;94602.97;5012378;28;20557;-69
2021/08/07 04:02:55;;;;;;;5.35;4.55;;;;;;;25.07;44.27;94610.28;5010419;28;20053;-69
2021/08/07 04:05:20;;;;;;;5.00;4.50;;;;;;;25.01;44.45;94598.28;5010388;28;20038;-69
2021/08/07 04:07:46;;;;;;;5.28;3.70;;;;;;;25.15;44.42;94598.13;5025597;28;20045;-69
2021/08/07 04:10:14;;;;;;;4.78;4.20;;;;;;;25.10;44.16;94595.88;5010258;28;20026;-69
2021/08/07 04:12:41;;;;;;;7.55;4.22;;;;;;;25.23;44.02;94605.00;5012389;28;20022;-69
2021/08/07 04:15:07;;;;;;;4.65;4.25;;;;;;;25.22;43.79;94578.19;5011594;28;20117;-69
2021/08/07 04:17:35;;;;;;;6.03;4.68;;;;;;;25.32;43.58;94578.03;5009762;28;20041;-69
2021/08/07 04:20:01;;;;;;;4.15;3.53;;;;;;;25.38;43.42;94570.94;5010433;28;20042;-69
2021/08/07 04:22:26;;;;;;;4.78;3.70;;;;;;;25.55;43.40;94577.31;5009899;28;20041;-69
2021/08/07 04:24:52;;;;;;;5.53;3.63;;;;;;;25.61;42.86;94578.38;5011970;28;20027;-69
2021/08/07 04:27:20;;;;;;;3.92;2.95;;;;;;;25.71;42.80;94590.28;5010759;28;20048;-69
2021/08/07 04:29:45;;;;;;;4.13;3.47;;;;;;;25.63;42.77;94584.16;5010114;28;20173;-70
2021/08/07 04:32:11;;;;;;;3.55;3.10;;;;;;;25.74;42.54;94592.16;5011261;28;20117;-69
2021/08/07 04:34:36;;;;;;;4.53;3.20;;;;;;;25.83;42.32;94600.59;5011349;28;20448;-69
2021/08/07 04:37:02;;;;;;;3.88;3.35;;;;;;;25.52;42.54;94588.25;5010537;28;20057;-70
2021/08/07 04:39:27;;;;;;;3.22;2.85;;;;;;;25.79;42.36;94610.78;5012468;28;20062;-69
2021/08/07 04:41:52;;;;;;;4.15;3.10;;;;;;;25.80;42.49;94597.94;5010521;28;20129;-69
2021/08/07 04:44:18;;;;;;;5.43;3.38;;;;;;;25.99;42.38;94610.84;5026242;28;20073;-70
2021/08/07 04:46:43;;;;;;;6.60;3.50;;;;;;;26.03;42.16;94617.00;5025787;28;20049;-70
2021/08/07 04:49:08;;;;;;;3.55;3.25;;;;;;;26.07;42.12;94611.50;5011301;28;20053;-69
2021/08/07 04:51:34;;;;;;;3.67;3.08;;;;;;;26.07;41.94;94606.81;5028194;28;20099;-69
2021/08/07 04:53:59;;;;;;;5.28;3.40;;;;;;;26.12;42.08;94600.88;5010226;28;20491;-69
2021/08/07 04:56:25;;;;;;;4.25;3.40;;;;;;;26.25;42.03;94614.66;5008682;28;20529;-70
2021/08/07 04:58:50;;;;;;;3.97;3.33;;;;;;;26.22;42.02;94599.16;5010846;28;20468;-69
2021/08/07 05:01:15;;;;;;;3.88;3.50;;;;;;;26.31;41.99;94604.03;5011032;28;20494;-69
2021/08/07 05:03:41;;;;;;;3.35;3.05;;;;;;;26.00;41.81;94559.81;5028130;28;20549;-69
2021/08/07 05:06:06;;;;;;;4.03;2.80;;;;;;;26.30;41.20;94597.03;5010303;28;20095;-69
2021/08/07 05:08:31;;;;;;;2.67;2.47;;;;;;;26.31;41.49;94593.91;5010068;28;20479;-69
2021/08/07 05:10:57;;;;;;;3.28;2.60;;;;;;;26.49;41.28;94595.56;5009073;28;20046;-69
2021/08/07 05:13:22;;;;;;;3.25;2.90;;;;;;;26.65;41.22;94596.38;5010658;28;20069;-69
2021/08/07 05:15:48;;;;;;;3.33;2.72;;;;;;;26.70;40.91;94593.16;5011850;28;20113;-70
2021/08/07 05:18:13;;;;;;;4.82;2.90;;;;;;;26.81;40.75;94581.25;5010554;28;20541;-69
2021/08/07 05:20:39;;;;;;;2.83;2.38;;;;;;;26.93;40.32;94584.13;5010613;28;20554;-69
2021/08/07 05:23:04;;;;;;;2.50;2.30;;;;;;;27.14;40.08;94584.88;5010121;28;20403;-70
2021/08/07 05:25:30;;;;;;;3.20;2.90;;;;;;;27.24;40.50;94583.88;5009958;28;20208;-70
2021/08/07 05:27:55;;;;;;;3.67;2.97;;;;;;;27.25;39.73;94574.47;5011812;28;20087;-68
2021/08/07 05:30:20;;;;;;;3.22;2.90;;;;;;;26.88;39.81;94551.88;5010376;28;20491;-68
2021/08/07 05:32:46;;;;;;;3.40;2.50;;;;;;;27.28;39.74;94602.88;5010230;28;20049;-71
2021/08/07 05:35:11;;;;;;;3.13;2.78;;;;;;;27.29;39.31;94597.00;5025627;28;20109;-68
2021/08/07 05:37:40;;;;;;;3.45;2.83;;;;;;;27.31;39.29;94602.81;5008983;28;20515;-68
2021/08/07 05:40:07;;;;;;;3.88;2.50;;;;;;;27.27;39.42;94590.44;5006039;28;20030;-68
2021/08/07 05:42:33;;;;;;;5.85;3.10;;;;;;;27.37;39.46;94583.94;5011991;28;20583;-69
2021/08/07 05:44:58;;;;;;;3.17;2.88;;;;;;;27.48;39.37;94598.88;5025095;28;20038;-70
2021/08/07 05:47:24;;;;;;;3.28;2.70;;;;;;;27.48;39.25;94585.22;5009342;28;20503;-70
2021/08/07 05:49:49;;;;;;;4.82;3.10;;;;;;;27.10;39.78;94571.28;5009724;28;20041;-71
2021/08/07 05:52:14;;;;;;;3.67;2.70;;;;;;;27.15;39.70;94578.22;5009305;28;20061;-69
2021/08/07 05:54:40;;;;;;;5.28;2.60;;;;;;;27.15;40.19;94580.94;5006911;28;20395;-70
2021/08/07 05:57:05;;;;;;;3.92;2.90;;;;;;;27.29;40.39;94586.09;5007818;28;20510;-69
2021/08/07 05:59:30;;;;;;;4.20;2.83;;;;;;;27.43;40.28;94574.81;5010083;28;20042;-70
2021/08/07 06:01:56;;;;;;;5.20;2.75;;;;;;;27.43;39.44;94557.66;5009775;28;20076;-70
2021/08/07 06:04:21;;;;;;;4.93;2.50;;;;;;;27.48;39.30;94571.56;5009673;28;20040;-70
2021/08/07 06:06:47;;;;;;;4.50;2.63;;;;;;;27.88;38.71;94585.06;5011343;28;20034;-69
2021/08/07 06:09:12;;;;;;;4.07;2.28;;;;;;;28.02;38.99;94578.50;5008904;28;20040;-71
2021/08/07 06:11:37;;;;;;;4.13;2.13;;;;;;;28.34;38.43;94574.94;5009331;28;20566;-70
2021/08/07 06:14:03;;;;;;;3.28;2.65;;;;;;;28.67;37.40;94585.75;5009551;28;20030;-70
2021/08/07 06:16:28;;;;;;;3.03;2.38;;;;;;;28.63;37.35;94585.09;5007686;28;20618;-70
2021/08/07 06:18:54;;;;;;;4.65;2.22;;;;;;;28.55;37.36;94578.28;5011330;28;20033;-70
2021/08/07 06:21:19;;;;;;;4.15;2.28;;;;;;;28.42;37.99;94579.00;5009466;28;20096;-71
2021/08/07 06:23:45;;;;;;;4.82;2.35;;;;;;;28.35;37.61;94572.94;5007304;28;20381;-70
2021/08/07 06:26:10;;;;;;;4.18;2.28;;;;;;;28.18;37.67;94547.59;5008116;28;20394;-70
2021/08/07 06:28:37;;;;;;;3.17;2.88;;;;;;;28.33;37.96;94572.59;5024284;28;20084;-70
2021/08/07 06:31:02;;;;;;;2.58;1.90;;;;;;;28.22;36.92;94561.94;5009341;28;20030;-70
2021/08/07 06:33:28;;;;;;;2.33;2.05;;;;;;;28.04;38.11;94558.91;5011129;28;20014;-70
2021/08/07 06:35:53;;;;;;;2.42;2.22;;;;;;;28.01;38.29;94560.56;5023789;28;20042;-71
2021/08/07 06:38:18;;;;;;;4.05;2.00;;;;;;;27.67;38.16;94550.81;5007744;28;20108;-71
2021/08/07 06:40:44;;;;;;;2.45;1.92;;;;;;;27.76;38.48;94527.63;5008857;28;20034;-70
2021/08/07 06:43:09;;;;;;;2.88;2.03;;;;;;;27.99;38.67;94557.47;5009006;28;20022;-70
2021/08/07 06:45:35;;;;;;;2.50;2.03;;;;;;;28.17;38.33;94549.56;5010665;28;20030;-70
2021/08/07 06:48:00;;;;;;;2.38;2.00;;;;;;;28.42;38.24;94572.78;5008881;28;20077;-71
2021/08/07 06:50:25;;;;;;;3.10;1.92;;;;;;;28.31;37.47;94569.53;5009078;28;20034;-71
2021/08/07 06:52:51;;;;;;;3.35;1.98;;;;;;;28.18;37.98;94594.84;5009003;28;20042;-71
2021/08/07 06:55:16;;;;;;;2.10;1.98;;;;;;;28.38;37.93;94583.03;5006993;28;20176;-71
2021/08/07 06:57:42;;;;;;;3.83;2.08;;;;;;;28.43;37.41;94574.31;5010443;28;20065;-70
2021/08/07 07:00:09;;;;;;;2.25;1.75;;;;;;;28.82;37.05;94583.38;5008941;28;20529;-71
2021/08/07 07:02:35;;;;;;;4.13;2.10;;;;;;;29.01;36.33;94566.00;5008809;28;20033;-71
2021/08/07 07:05:01;;;;;;;3.17;2.30;;;;;;;29.65;35.72;94571.50;5008525;28;20045;-70
2021/08/07 07:07:26;;;;;;;2.17;1.90;;;;;;;29.79;35.08;94549.13;5008425;28;20034;-71
2021/08/07 07:09:52;;;;;;;2.00;1.80;;;;;;;29.82;34.90;94540.00;5010129;28;20026;-71
2021/08/07 07:12:17;;;;;;;2.22;1.80;;;;;;;29.78;34.69;94547.56;5008633;28;20046;-72
2021/08/07 07:14:43;;;;;;;2.75;1.95;;;;;;;29.48;34.97;94543.41;5008958;28;20100;-71
2021/08/07 07:17:08;;;;;;;3.85;1.83;;;;;;;29.71;35.35;94556.03;5007885;28;20487;-71
2021/08/07 07:19:34;;;;;;;1.48;1.38;;;;;;;29.60;35.02;94550.13;5008838;28;20030;-73
2021/08/07 07:21:59;;;;;;;4.40;2.08;;;;;;;29.57;35.34;94557.25;5023770;28;20026;-70
2021/08/07 07:24:25;;;;;;;2.67;1.55;;;;;;;29.38;35.83;94560.97;5011544;28;20032;-79
2021/08/07 07:26:50;;;;;;;2.13;1.92;;;;;;;29.58;35.87;94558.03;5009864;28;20034;-79
2021/08/07 07:29:15;;;;;;;2.13;1.60;;;;;;;29.70;35.45;94560.75;5010469;28;20399;-79
2021/08/07 07:31:42;;;;;;;1.67;1.38;;;;;;;29.75;35.48;94553.94;5010530;28;20034;-80
2021/08/07 07:34:07;;;;;;;2.45;1.70;;;;;;;29.59;34.94;94554.09;5010388;28;20026;-79
2021/08/07 07:36:33;;;;;;;2.28;1.73;;;;;;;28.55;36.26;94550.91;5011451;28;20549;-80
2021/08/07 07:39:05;;;;;;;3.05;1.98;;;;;;;29.39;35.50;94546.84;5008278;28;20038;-80
2021/08/07 07:41:31;;;;;;;2.72;1.70;;;;;;;29.52;35.25;94555.03;5008944;28;20037;-78
2021/08/07 07:43:57;;;;;;;3.10;2.00;;;;;;;29.78;34.99;94553.03;5009264;28;20482;-70
2021/08/07 07:46:22;;;;;;;2.30;1.70;;;;;;;29.70;34.61;94549.78;5008632;28;20026;-85
2021/08/07 07:48:48;;;;;;;2.35;1.80;;;;;;;29.83;34.58;94527.81;5011896;28;20049;-74
2021/08/07 07:51:13;;;;;;;2.78;1.73;;;;;;;30.32;34.36;94543.03;5009229;28;20542;-73
2021/08/07 07:53:39;;;;;;;4.18;1.92;;;;;;;30.64;33.71;94544.59;5004117;28;20388;-72
2021/08/07 07:56:04;;;;;;;2.72;1.77;;;;;;;30.58;33.11;94562.88;5003926;28;20056;-77
2021/08/07 07:58:30;;;;;;;4.25;1.67;;;;;;;30.51;32.14;94550.19;5008411;28;20125;-71
2021/08/07 08:00:55;;;;;;;2.33;1.75;;;;;;;30.73;32.17;94567.41;5010301;28;20038;-70
2021/08/07 08:03:21;;;;;;;1.92;1.60;;;;;;;31.06;31.79;94559.50;5008997;28;20038;-70
2021/08/07 08:05:46;;;;;;;2.38;1.80;;;;;;;31.06;32.02;94554.00;5007743;28;20034;-71
2021/08/07 08:08:12;;;;;;;4.70;1.80;;;;;;;31.03;31.07;94543.94;5006073;28;20050;-72
2021/08/07 08:10:40;;;;;;;2.55;1.83;;;;;;;30.19;32.15;94554.03;5007597;28;20057;-66
2021/08/07 08:13:05;;;;;;;2.28;1.50;;;;;;;30.90;31.57;94553.47;5008400;28;20033;-68
2021/08/07 08:15:31;;;;;;;2.88;1.60;;;;;;;31.20;31.05;94543.69;5010105;28;20026;-67
2021/08/07 08:17:56;;;;;;;2.80;1.77;;;;;;;31.39;30.95;94539.81;5011811;28;20041;-78
2021/08/07 08:20:22;;;;;;;3.30;2.42;;;;;;;31.37;30.34;94528.50;5010577;28;20503;-73
2021/08/07 08:22:48;;;;;;;9.20;2.63;;;;;;;31.77;30.34;94550.44;5009698;28;20045;-63
2021/08/07 08:25:13;;;;;;;4.68;2.42;;;;;;;31.66;30.45;94538.34;5008697;28;20038;-62
2021/08/07 08:27:39;;;;;;;2.72;2.30;;;;;;;31.72;29.74;94533.78;5012541;28;20013;-62
2021/08/07 08:30:07;;;;;;;3.85;2.10;;;;;;;31.99;29.98;94544.84;5011718;28;20034;-63
2021/08/07 08:32:33;;;;;;;1.85;1.60;;;;;;;32.01;29.78;94541.63;5011140;28;20080;-61
2021/08/07 08:34:58;;;;;;;3.53;1.95;;;;;;;32.20;30.13;94545.16;5010477;28;20107;-64
2021/08/07 08:37:24;;;;;;;2.03;1.50;;;;;;;32.40;28.83;94531.72;4991169;28;20053;-64
2021/08/07 08:39:50;;;;;;;2.38;1.67;;;;;;;32.20;29.45;94537.69;5005245;28;20038;-61
2021/08/07 08:42:16;;;;;;;2.90;1.40;;;;;;;32.57;28.90;94518.41;5011945;28;20045;-65
2021/08/07 08:44:42;;;;;;;1.98;1.60;;;;;;;32.99;28.58;94504.69;5009752;28;20042;-63
2021/08/07 08:47:08;;;;;;;2.55;1.55;;;;;;;33.45;27.26;94512.00;5010588;28;20060;-64
2021/08/07 08:49:34;;;;;;;2.60;1.52;;;;;;;33.93;26.12;94512.75;5011018;28;20164;-62
2021/08/07 08:52:01;;;;;;;2.20;1.70;;;;;;;34.24;25.54;94519.88;5011069;28;20033;-64
2021/08/07 08:54:28;;;;;;;2.22;1.40;;;;;;;34.37;25.83;94506.59;5027508;28;20029;-62
2021/08/07 08:56:54;;;;;;;1.42;1.33;;;;;;;34.81;24.58;94512.16;5010258;28;20502;-61
2021/08/07 08:59:23;;;;;;;2.08;1.50;;;;;;;34.90;24.49;94486.41;5010960;28;20042;-63
2021/08/07 09:01:49;;;;;;;2.58;1.50;;;;;;;35.66;25.60;94506.69;5010599;28;20053;-61
2021/08/07 09:04:15;;;;;;;3.25;1.92;;;;;;;36.15;24.69;94507.81;5010725;28;20021;-63
2021/08/07 09:06:41;;;;;;;3.10;1.60;;;;;;;36.39;24.01;94504.81;5012115;28;20037;-63
2021/08/07 09:09:08;;;;;;;2.00;1.30;;;;;;;36.38;23.41;94503.25;5009880;28;20036;-62
2021/08/07 09:11:35;;;;;;;1.92;1.63;;;;;;;34.57;24.39;94503.97;5010398;28;20045;-63
2021/08/07 09:14:13;;;;;;;1.50;1.40;;;;;;;34.84;24.82;94507.69;5009268;28;20065;-62
2021/08/07 09:16:59;;;;;;;2.95;1.52;;;;;;;34.81;25.38;94495.59;5009736;28;20038;-61
2021/08/07 09:19:28;;;;;;;2.08;1.30;;;;;;;35.19;24.98;94499.47;5010395;28;20124;-62
2021/08/07 09:22:17;;;;;;;1.73;1.52;;;;;;;34.74;25.41;94503.47;5012098;28;20491;-61
2021/08/07 09:25:05;;;;;;;2.65;1.20;;;;;;;35.11;24.04;94507.41;5005414;28;20057;-61
2021/08/07 09:27:41;;;;;;;2.00;1.45;;;;;;;35.01;24.55;94503.22;5009933;28;20488;-62
2021/08/07 09:30:18;;;;;;;1.67;1.20;;;;;;;35.50;23.75;94509.97;5010410;28;20042;-66
2021/08/07 09:32:49;;;;;;;3.30;1.35;;;;;;;35.09;23.57;94495.28;5010274;28;20050;-64
2021/08/07 09:35:17;;;;;;;1.40;1.30;;;;;;;35.69;23.76;94499.44;5008722;28;20112;-68
2021/08/07 09:37:43;;;;;;;3.83;1.40;;;;;;;35.99;23.38;94477.94;5009573;28;20030;-66
2021/08/07 09:40:13;;;;;;;1.63;1.50;;;;;;;36.25;23.16;94489.03;5008235;28;20091;-66
2021/08/07 09:42:53;;;;;;;3.22;1.60;;;;;;;36.15;23.05;94491.19;5011787;28;20018;-66
2021/08/07 09:45:26;;;;;;;2.28;1.40;;;;;;;36.12;22.97;94494.94;5009864;28;20084;-67
2021/08/07 09:47:59;;;;;;;3.38;1.30;;;;;;;36.79;22.98;94485.78;5009498;28;20520;-67
2021/08/07 09:50:27;;;;;;;1.88;1.10;;;;;;;37.07;22.87;94480.50;5009939;28;20038;-67
2021/08/07 09:52:53;;;;;;;3.28;1.77;;;;;;;36.34;22.69;94479.78;5009886;28;20038;-66
2021/08/07 09:55:19;;;;;;;1.92;1.40;;;;;;;36.53;23.25;94481.03;5009097;28;20125;-67
2021/08/07 09:57:44;;;;;;;1.85;1.38;;;;;;;36.50;23.35;94468.16;5010919;28;20030;-73
2021/08/07 10:00:11;;;;;;;3.65;1.33;;;;;;;36.52;23.08;94467.66;5009587;28;20042;-71
2021/08/07 10:02:37;;;;;;;7.60;1.55;;;;;;;36.48;23.84;94467.88;5008275;28;20046;-66
2021/08/07 10:05:05;;;;;;;2.15;1.65;;;;;;;36.41;22.51;94455.22;5009477;28;20041;-68
2021/08/07 10:07:30;;;;;;;4.07;1.30;;;;;;;36.61;22.93;94459.94;5009226;28;20026;-66
2021/08/07 10:09:56;;;;;;;1.50;1.35;;;;;;;36.58;22.76;94458.16;5010954;28;20076;-66
2021/08/07 10:12:22;;;;;;;1.40;1.30;;;;;;;36.68;23.22;94456.72;5009240;28;20041;-67
2021/08/07 10:14:48;;;;;;;1.45;1.30;;;;;;;36.74;23.02;94459.53;5009372;28;20046;-66
2021/08/07 10:17:17;;;;;;;1.58;1.48;;;;;;;36.73;22.63;94463.56;5008596;28;20038;-66
2021/08/07 10:19:45;;;;;;;2.97;1.50;;;;;;;36.31;22.79;94456.63;5007993;28;20062;-66
2021/08/07 10:22:13;;;;;;;2.05;1.63;;;;;;;36.11;22.97;94451.88;5007898;28;20079;-67
2021/08/07 10:24:42;;;;;;;1.50;1.40;;;;;;;36.01;23.27;94452.53;5010320;28;20704;-66
2021/08/07 10:27:08;;;;;;;1.52;1.42;;;;;;;36.26;23.06;94449.00;5008243;28;20041;-68
2021/08/07 10:29:44;;;;;;;2.20;1.52;;;;;;;36.79;22.29;94446.97;5007950;28;20061;-66
2021/08/07 10:32:15;;;;;;;1.50;1.20;;;;;;;37.31;22.73;94442.06;5009036;28;20034;-67
2021/08/07 10:34:44;;;;;;;1.52;1.40;;;;;;;37.40;22.97;94449.44;5008961;28;20030;-66
2021/08/07 10:37:10;;;;;;;1.23;1.13;;;;;;;37.21;21.70;94449.06;5008807;28;20030;-66
2021/08/07 10:39:35;;;;;;;1.58;1.48;;;;;;;37.30;22.53;94448.09;5009935;28;20022;-67
2021/08/07 10:42:04;;;;;;;1.50;1.40;;;;;;;36.90;22.41;94447.09;5008859;28;20430;-67
2021/08/07 10:44:31;;;;;;;1.88;1.27;;;;;;;37.25;22.41;94449.59;5008628;28;20115;-67
2021/08/07 10:46:57;;;;;;;1.38;1.20;;;;;;;37.58;22.09;94442.75;5023734;28;20038;-67
2021/08/07 10:49:37;;;;;;;1.58;1.20;;;;;;;37.85;21.55;94438.56;5009012;28;20038;-67
2021/08/07 10:52:21;;;;;;;1.43;1.17;;;;;;;37.86;21.48;94443.63;5009061;28;20627;-67
2021/08/07 10:54:48;;;;;;;1.98;1.63;;;;;;;37.65;22.40;94437.47;5010252;28;20454;-66
2021/08/07 10:57:37;;;;;;;1.75;1.35;;;;;;;36.80;22.87;94440.19;5008303;28;20034;-65
2021/08/07 11:00:23;;;;;;;1.30;1.20;;;;;;;36.58;23.63;94438.00;5008907;28;20120;-65
2021/08/07 11:02:49;;;;;;;4.05;1.60;;;;;;;36.65;23.83;94420.91;5008729;28;20099;-64
2021/08/07 11:05:15;;;;;;;3.35;1.60;;;;;;;36.94;22.73;94447.63;5008823;28;20515;-63
2021/08/07 11:07:41;;;;;;;2.78;1.60;;;;;;;36.81;22.85;94428.63;5008390;28;20045;-64
2021/08/07 11:10:10;;;;;;;2.97;1.67;;;;;;;37.31;22.48;94425.41;5008140;28;20091;-63
2021/08/07 11:12:38;;;;;;;1.60;1.50;;;;;;;37.46;22.63;94420.47;5010528;28;20480;-65
2021/08/07 11:15:26;;;;;;;1.52;1.42;;;;;;;37.79;23.17;94415.56;5008478;28;20030;-64
2021/08/07 11:17:51;;;;;;;1.75;1.17;;;;;;;37.71;22.21;94406.97;5008088;28;20049;-64
2021/08/07 11:20:46;;;;;;;1.95;1.50;;;;;;;37.46;22.46;94403.06;5007339;28;20145;-64
2021/08/07 11:23:14;;;;;;;2.05;1.70;;;;;;;37.15;23.72;94401.88;5002593;28;20412;-64
2021/08/07 11:25:53;;;;;;;1.67;1.58;;;;;;;36.30;23.31;94396.94;5007478;28;20041;-63
2021/08/07 11:28:21;;;;;;;1.52;1.42;;;;;;;35.47;23.06;94380.94;5008525;28;20033;-63
2021/08/07 11:30:47;;;;;;;1.30;1.15;;;;;;;35.30;24.51;94380.72;5010331;28;20032;-64
2021/08/07 11:33:13;;;;;;;2.17;1.63;;;;;;;33.82;26.26;94388.38;5008511;28;20053;-64
2021/08/07 11:35:38;;;;;;;3.80;1.80;;;;;;;33.56;26.88;94380.63;5008143;28;20038;-64